sensor_id;sensor_type;location;lat;lon;timestamp;P1;durP1;ratioP1;P2;durP2;ratioP2
65033;SDS011;51601;51.356;12.458;2022-07-04T00:03:20;5.45;;;2.45;;
65033;SDS011;51601;51.356;12.458;2022-07-04T00:07:33;5.35;;;2.63;;
65033;SDS011;51601;51.356;12.458;2022-07-04T00:11:47;7.73;;;2.80;;
65033;SDS011;51601;51.356;12.458;2022-07-04T00:16:01;5.68;;;2.58;;
65033;SDS011;51601;51.356;12.458;2022-07-04T00:20:16;6.55;;;2.95;;
65033;SDS011;51601;51.356;12.458;2022-07-04T00:24:30;6.30;;;3.00;;
65033;SDS011;51601;51.356;12.458;2022-07-04T00:28:44;5.53;;;2.80;;
65033;SDS011;51601;51.356;12.458;2022-07-04T00:32:58;7.38;;;2.88;;
65033;SDS011;51601;51.356;12.458;2022-07-04T00:37:16;6.53;;;3.00;;
65033;SDS011;51601;51.356;12.458;2022-07-04T00:41:30;8.50;;;3.00;;
65033;SDS011;51601;51.356;12.458;2022-07-04T00:45:44;7.15;;;3.05;;
65033;SDS011;51601;51.356;12.458;2022-07-04T00:49:57;6.03;;;2.78;;
65033;SDS011;51601;51.356;12.458;2022-07-04T00:54:15;7.77;;;3.27;;
65033;SDS011;51601;51.356;12.458;2022-07-04T00:58:30;7.20;;;3.50;;
65033;SDS011;51601;51.356;12.458;2022-07-04T01:02:44;10.50;;;4.80;;
65033;SDS011;51601;51.356;12.458;2022-07-04T01:06:58;7.97;;;4.78;;
65033;SDS011;51601;51.356;12.458;2022-07-04T01:11:13;9.23;;;5.50;;
65033;SDS011;51601;51.356;12.458;2022-07-04T01:15:28;9.13;;;6.18;;
65033;SDS011;51601;51.356;12.458;2022-07-04T01:19:42;10.32;;;5.68;;
65033;SDS011;51601;51.356;12.458;2022-07-04T01:23:57;11.47;;;6.33;;
65033;SDS011;51601;51.356;12.458;2022-07-04T01:28:11;8.38;;;5.70;;
65033;SDS011;51601;51.356;12.458;2022-07-04T01:32:25;9.55;;;5.45;;
65033;SDS011;51601;51.356;12.458;2022-07-04T01:36:40;9.57;;;5.20;;
65033;SDS011;51601;51.356;12.458;2022-07-04T01:40:55;9.30;;;5.28;;
65033;SDS011;51601;51.356;12.458;2022-07-04T01:45:12;11.32;;;5.10;;
65033;SDS011;51601;51.356;12.458;2022-07-04T01:49:26;9.77;;;4.82;;
65033;SDS011;51601;51.356;12.458;2022-07-04T01:53:43;8.73;;;4.87;;
65033;SDS011;51601;51.356;12.458;2022-07-04T01:57:58;9.43;;;5.20;;
65033;SDS011;51601;51.356;12.458;2022-07-04T02:02:15;8.30;;;4.68;;
65033;SDS011;51601;51.356;12.458;2022-07-04T02:06:32;8.70;;;4.80;;
65033;SDS011;51601;51.356;12.458;2022-07-04T02:10:47;8.80;;;4.70;;
65033;SDS011;51601;51.356;12.458;2022-07-04T02:15:02;9.43;;;4.90;;
65033;SDS011;51601;51.356;12.458;2022-07-04T02:19:17;9.83;;;4.70;;
65033;SDS011;51601;51.356;12.458;2022-07-04T02:23:31;7.75;;;4.47;;
65033;SDS011;51601;51.356;12.458;2022-07-04T02:27:44;8.35;;;4.68;;
65033;SDS011;51601;51.356;12.458;2022-07-04T02:32:00;7.65;;;4.97;;
65033;SDS011;51601;51.356;12.458;2022-07-04T02:36:14;9.87;;;6.07;;
65033;SDS011;51601;51.356;12.458;2022-07-04T02:40:28;8.93;;;5.30;;
65033;SDS011;51601;51.356;12.458;2022-07-04T02:44:42;9.23;;;5.20;;
65033;SDS011;51601;51.356;12.458;2022-07-04T02:48:59;9.63;;;5.60;;
65033;SDS011;51601;51.356;12.458;2022-07-04T02:53:13;8.02;;;5.70;;
65033;SDS011;51601;51.356;12.458;2022-07-04T02:57:27;9.88;;;6.03;;
65033;SDS011;51601;51.356;12.458;2022-07-04T03:01:41;9.57;;;6.10;;
65033;SDS011;51601;51.356;12.458;2022-07-04T03:05:56;9.65;;;6.40;;
65033;SDS011;51601;51.356;12.458;2022-07-04T03:10:15;8.88;;;6.10;;
65033;SDS011;51601;51.356;12.458;2022-07-04T03:14:30;9.35;;;6.47;;
65033;SDS011;51601;51.356;12.458;2022-07-04T03:18:43;11.07;;;6.40;;
65033;SDS011;51601;51.356;12.458;2022-07-04T03:22:59;9.80;;;6.53;;
65033;SDS011;51601;51.356;12.458;2022-07-04T03:27:14;9.45;;;6.13;;
65033;SDS011;51601;51.356;12.458;2022-07-04T03:31:28;9.33;;;6.47;;
65033;SDS011;51601;51.356;12.458;2022-07-04T03:35:44;8.98;;;6.05;;
65033;SDS011;51601;51.356;12.458;2022-07-04T03:39:59;8.85;;;4.80;;
65033;SDS011;51601;51.356;12.458;2022-07-04T03:44:16;8.73;;;5.60;;
65033;SDS011;51601;51.356;12.458;2022-07-04T03:48:30;10.07;;;5.15;;
65033;SDS011;51601;51.356;12.458;2022-07-04T03:52:44;9.07;;;4.88;;
65033;SDS011;51601;51.356;12.458;2022-07-04T03:57:00;7.88;;;4.53;;
65033;SDS011;51601;51.356;12.458;2022-07-04T04:01:14;7.50;;;4.20;;
65033;SDS011;51601;51.356;12.458;2022-07-04T04:05:31;10.32;;;4.03;;
65033;SDS011;51601;51.356;12.458;2022-07-04T04:09:46;6.78;;;3.55;;
65033;SDS011;51601;51.356;12.458;2022-07-04T04:14:04;6.80;;;3.50;;
65033;SDS011;51601;51.356;12.458;2022-07-04T04:18:18;9.20;;;3.30;;
65033;SDS011;51601;51.356;12.458;2022-07-04T04:22:32;8.23;;;3.47;;
65033;SDS011;51601;51.356;12.458;2022-07-04T04:26:45;6.40;;;3.57;;
65033;SDS011;51601;51.356;12.458;2022-07-04T04:31:01;8.50;;;3.42;;
65033;SDS011;51601;51.356;12.458;2022-07-04T04:35:15;6.57;;;3.05;;
65033;SDS011;51601;51.356;12.458;2022-07-04T04:39:29;7.22;;;2.70;;
65033;SDS011;51601;51.356;12.458;2022-07-04T04:43:43;8.00;;;2.83;;
65033;SDS011;51601;51.356;12.458;2022-07-04T04:48:05;6.65;;;2.67;;
65033;SDS011;51601;51.356;12.458;2022-07-04T04:52:19;5.65;;;2.30;;
65033;SDS011;51601;51.356;12.458;2022-07-04T04:56:33;6.67;;;2.63;;
65033;SDS011;51601;51.356;12.458;2022-07-04T05:00:48;6.20;;;2.40;;
65033;SDS011;51601;51.356;12.458;2022-07-04T05:05:24;7.28;;;2.60;;
65033;SDS011;51601;51.356;12.458;2022-07-04T05:09:38;6.73;;;2.37;;
65033;SDS011;51601;51.356;12.458;2022-07-04T05:13:52;6.65;;;2.53;;
65033;SDS011;51601;51.356;12.458;2022-07-04T05:18:06;8.32;;;2.60;;
65033;SDS011;51601;51.356;12.458;2022-07-04T05:22:21;6.78;;;2.50;;
65033;SDS011;51601;51.356;12.458;2022-07-04T05:26:36;6.67;;;2.23;;
65033;SDS011;51601;51.356;12.458;2022-07-04T05:30:49;6.70;;;2.30;;
65033;SDS011;51601;51.356;12.458;2022-07-04T05:35:03;6.93;;;2.85;;
65033;SDS011;51601;51.356;12.458;2022-07-04T05:39:19;6.13;;;2.17;;
65033;SDS011;51601;51.356;12.458;2022-07-04T05:43:33;4.53;;;1.70;;
65033;SDS011;51601;51.356;12.458;2022-07-04T05:47:47;4.72;;;1.70;;
65033;SDS011;51601;51.356;12.458;2022-07-04T05:52:01;5.83;;;1.70;;
65033;SDS011;51601;51.356;12.458;2022-07-04T05:56:16;5.10;;;1.90;;
65033;SDS011;51601;51.356;12.458;2022-07-04T06:00:30;4.47;;;1.67;;
65033;SDS011;51601;51.356;12.458;2022-07-04T06:04:44;5.40;;;1.70;;
65033;SDS011;51601;51.356;12.458;2022-07-04T06:08:58;6.77;;;1.60;;
65033;SDS011;51601;51.356;12.458;2022-07-04T06:13:14;8.57;;;1.80;;
65033;SDS011;51601;51.356;12.458;2022-07-04T06:17:27;4.47;;;1.65;;
65033;SDS011;51601;51.356;12.458;2022-07-04T06:21:42;4.50;;;1.53;;
65033;SDS011;51601;51.356;12.458;2022-07-04T06:25:56;5.57;;;1.77;;
65033;SDS011;51601;51.356;12.458;2022-07-04T06:30:13;4.20;;;1.60;;
65033;SDS011;51601;51.356;12.458;2022-07-04T06:34:28;6.27;;;1.60;;
65033;SDS011;51601;51.356;12.458;2022-07-04T06:38:59;5.22;;;1.70;;
65033;SDS011;51601;51.356;12.458;2022-07-04T06:43:16;6.40;;;1.90;;
65033;SDS011;51601;51.356;12.458;2022-07-04T06:47:32;4.82;;;1.48;;
65033;SDS011;51601;51.356;12.458;2022-07-04T06:51:46;5.20;;;1.53;;
65033;SDS011;51601;51.356;12.458;2022-07-04T06:56:00;4.85;;;1.40;;
65033;SDS011;51601;51.356;12.458;2022-07-04T07:00:14;5.32;;;1.40;;
65033;SDS011;51601;51.356;12.458;2022-07-04T07:04:30;6.67;;;1.37;;
65033;SDS011;51601;51.356;12.458;2022-07-04T07:08:44;4.55;;;1.52;;
65033;SDS011;51601;51.356;12.458;2022-07-04T07:12:58;4.55;;;1.33;;
65033;SDS011;51601;51.356;12.458;2022-07-04T07:17:12;4.07;;;1.30;;
65033;SDS011;51601;51.356;12.458;2022-07-04T07:21:28;3.83;;;1.25;;
65033;SDS011;51601;51.356;12.458;2022-07-04T07:25:42;5.65;;;1.45;;
65033;SDS011;51601;51.356;12.458;2022-07-04T07:29:56;5.47;;;1.30;;
65033;SDS011;51601;51.356;12.458;2022-07-04T07:34:10;4.57;;;1.50;;
65033;SDS011;51601;51.356;12.458;2022-07-04T07:38:26;3.97;;;1.30;;
65033;SDS011;51601;51.356;12.458;2022-07-04T07:42:39;4.30;;;1.23;;
65033;SDS011;51601;51.356;12.458;2022-07-04T07:46:53;3.57;;;1.50;;
65033;SDS011;51601;51.356;12.458;2022-07-04T07:51:09;3.63;;;1.15;;
65033;SDS011;51601;51.356;12.458;2022-07-04T07:55:25;4.22;;;1.30;;
65033;SDS011;51601;51.356;12.458;2022-07-04T07:59:39;4.97;;;1.50;;
65033;SDS011;51601;51.356;12.458;2022-07-04T08:03:53;6.18;;;1.40;;
65033;SDS011;51601;51.356;12.458;2022-07-04T08:08:30;5.28;;;1.42;;
65033;SDS011;51601;51.356;12.458;2022-07-04T08:12:45;5.28;;;1.30;;
65033;SDS011;51601;51.356;12.458;2022-07-04T08:16:59;5.10;;;1.23;;
65033;SDS011;51601;51.356;12.458;2022-07-04T08:21:13;5.18;;;1.20;;
65033;SDS011;51601;51.356;12.458;2022-07-04T08:25:28;4.35;;;1.20;;
65033;SDS011;51601;51.356;12.458;2022-07-04T08:29:43;4.73;;;1.20;;
65033;SDS011;51601;51.356;12.458;2022-07-04T08:33:58;6.30;;;1.42;;
65033;SDS011;51601;51.356;12.458;2022-07-04T08:38:12;5.22;;;1.30;;
65033;SDS011;51601;51.356;12.458;2022-07-04T08:42:25;5.27;;;1.43;;
65033;SDS011;51601;51.356;12.458;2022-07-04T08:46:46;6.45;;;1.40;;
65033;SDS011;51601;51.356;12.458;2022-07-04T08:51:09;7.40;;;1.27;;
65033;SDS011;51601;51.356;12.458;2022-07-04T08:55:28;4.35;;;1.33;;
65033;SDS011;51601;51.356;12.458;2022-07-04T09:00:01;6.47;;;1.20;;
65033;SDS011;51601;51.356;12.458;2022-07-04T09:04:17;5.03;;;1.23;;
65033;SDS011;51601;51.356;12.458;2022-07-04T09:08:32;4.55;;;1.30;;
65033;SDS011;51601;51.356;12.458;2022-07-04T09:12:46;3.80;;;1.10;;
65033;SDS011;51601;51.356;12.458;2022-07-04T09:17:20;4.60;;;1.25;;
65033;SDS011;51601;51.356;12.458;2022-07-04T09:21:45;4.05;;;1.35;;
65033;SDS011;51601;51.356;12.458;2022-07-04T09:26:07;4.50;;;1.20;;
65033;SDS011;51601;51.356;12.458;2022-07-04T09:30:25;6.57;;;1.23;;
65033;SDS011;51601;51.356;12.458;2022-07-04T09:34:50;5.00;;;1.45;;
65033;SDS011;51601;51.356;12.458;2022-07-04T09:39:10;4.30;;;1.20;;
65033;SDS011;51601;51.356;12.458;2022-07-04T09:43:27;3.37;;;1.00;;
65033;SDS011;51601;51.356;12.458;2022-07-04T09:47:41;4.75;;;1.40;;
65033;SDS011;51601;51.356;12.458;2022-07-04T09:51:57;4.95;;;1.38;;
65033;SDS011;51601;51.356;12.458;2022-07-04T09:56:13;5.30;;;1.43;;
65033;SDS011;51601;51.356;12.458;2022-07-04T10:00:28;4.38;;;1.40;;
65033;SDS011;51601;51.356;12.458;2022-07-04T10:04:44;3.83;;;1.15;;
65033;SDS011;51601;51.356;12.458;2022-07-04T10:09:06;4.53;;;1.20;;
65033;SDS011;51601;51.356;12.458;2022-07-04T10:13:25;4.57;;;1.20;;
65033;SDS011;51601;51.356;12.458;2022-07-04T10:17:40;4.55;;;1.20;;
65033;SDS011;51601;51.356;12.458;2022-07-04T10:21:54;3.70;;;1.33;;
65033;SDS011;51601;51.356;12.458;2022-07-04T10:26:08;3.80;;;1.20;;
65033;SDS011;51601;51.356;12.458;2022-07-04T10:30:25;5.40;;;1.20;;
65033;SDS011;51601;51.356;12.458;2022-07-04T10:34:41;5.45;;;1.70;;
65033;SDS011;51601;51.356;12.458;2022-07-04T10:38:56;4.10;;;1.20;;
65033;SDS011;51601;51.356;12.458;2022-07-04T10:48:20;4.95;;;1.33;;
65033;SDS011;51601;51.356;12.458;2022-07-04T10:52:34;4.27;;;1.23;;
65033;SDS011;51601;51.356;12.458;2022-07-04T10:56:53;5.20;;;1.70;;
65033;SDS011;51601;51.356;12.458;2022-07-04T11:01:11;8.50;;;1.60;;
65033;SDS011;51601;51.356;12.458;2022-07-04T11:05:31;6.10;;;1.45;;
65033;SDS011;51601;51.356;12.458;2022-07-04T11:09:45;4.40;;;1.30;;
65033;SDS011;51601;51.356;12.458;2022-07-04T11:14:33;6.43;;;1.67;;
65033;SDS011;51601;51.356;12.458;2022-07-04T11:18:48;4.53;;;1.40;;
65033;SDS011;51601;51.356;12.458;2022-07-04T11:23:07;7.93;;;2.87;;
65033;SDS011;51601;51.356;12.458;2022-07-04T11:27:22;7.43;;;1.55;;
65033;SDS011;51601;51.356;12.458;2022-07-04T11:31:37;5.90;;;1.50;;
65033;SDS011;51601;51.356;12.458;2022-07-04T11:36:03;6.53;;;2.10;;
65033;SDS011;51601;51.356;12.458;2022-07-04T11:46:11;4.95;;;1.80;;
65033;SDS011;51601;51.356;12.458;2022-07-04T11:50:26;5.22;;;1.52;;
65033;SDS011;51601;51.356;12.458;2022-07-04T11:54:46;4.40;;;1.50;;
65033;SDS011;51601;51.356;12.458;2022-07-04T11:59:10;5.22;;;1.50;;
65033;SDS011;51601;51.356;12.458;2022-07-04T12:03:27;5.53;;;1.60;;
65033;SDS011;51601;51.356;12.458;2022-07-04T12:07:42;6.40;;;1.73;;
65033;SDS011;51601;51.356;12.458;2022-07-04T12:12:16;6.63;;;2.00;;
65033;SDS011;51601;51.356;12.458;2022-07-04T12:16:30;4.72;;;1.65;;
65033;SDS011;51601;51.356;12.458;2022-07-04T12:20:46;7.97;;;2.50;;
65033;SDS011;51601;51.356;12.458;2022-07-04T12:25:01;6.82;;;1.90;;
65033;SDS011;51601;51.356;12.458;2022-07-04T12:29:21;5.70;;;1.90;;
65033;SDS011;51601;51.356;12.458;2022-07-04T12:33:51;6.00;;;2.00;;
65033;SDS011;51601;51.356;12.458;2022-07-04T12:38:10;5.57;;;2.03;;
65033;SDS011;51601;51.356;12.458;2022-07-04T12:42:31;7.30;;;2.60;;
65033;SDS011;51601;51.356;12.458;2022-07-04T12:46:46;6.13;;;2.20;;
65033;SDS011;51601;51.356;12.458;2022-07-04T12:51:20;5.93;;;2.47;;
65033;SDS011;51601;51.356;12.458;2022-07-04T12:55:38;6.35;;;2.38;;
65033;SDS011;51601;51.356;12.458;2022-07-04T12:59:53;5.95;;;2.08;;
65033;SDS011;51601;51.356;12.458;2022-07-04T13:04:27;9.67;;;2.60;;
65033;SDS011;51601;51.356;12.458;2022-07-04T13:08:43;6.35;;;2.80;;
65033;SDS011;51601;51.356;12.458;2022-07-04T13:12:58;5.68;;;2.47;;
65033;SDS011;51601;51.356;12.458;2022-07-04T13:17:13;5.88;;;2.55;;
65033;SDS011;51601;51.356;12.458;2022-07-04T13:21:26;6.43;;;2.40;;
65033;SDS011;51601;51.356;12.458;2022-07-04T13:25:41;7.03;;;2.40;;
65033;SDS011;51601;51.356;12.458;2022-07-04T13:29:59;6.93;;;2.47;;
65033;SDS011;51601;51.356;12.458;2022-07-04T13:34:14;5.90;;;2.27;;
65033;SDS011;51601;51.356;12.458;2022-07-04T13:38:28;5.72;;;2.50;;
65033;SDS011;51601;51.356;12.458;2022-07-04T13:42:45;6.00;;;2.38;;
65033;SDS011;51601;51.356;12.458;2022-07-04T13:47:15;5.07;;;1.90;;
65033;SDS011;51601;51.356;12.458;2022-07-04T13:51:29;6.35;;;2.13;;
65033;SDS011;51601;51.356;12.458;2022-07-04T13:55:44;7.05;;;2.50;;
65033;SDS011;51601;51.356;12.458;2022-07-04T13:59:59;5.13;;;2.13;;
65033;SDS011;51601;51.356;12.458;2022-07-04T14:04:18;7.37;;;4.00;;
65033;SDS011;51601;51.356;12.458;2022-07-04T14:08:32;5.45;;;2.30;;
65033;SDS011;51601;51.356;12.458;2022-07-04T14:12:46;6.43;;;2.50;;
65033;SDS011;51601;51.356;12.458;2022-07-04T14:17:00;6.90;;;2.07;;
65033;SDS011;51601;51.356;12.458;2022-07-04T14:21:35;5.50;;;1.85;;
65033;SDS011;51601;51.356;12.458;2022-07-04T14:25:49;6.57;;;1.92;;
65033;SDS011;51601;51.356;12.458;2022-07-04T14:30:04;4.07;;;1.60;;
65033;SDS011;51601;51.356;12.458;2022-07-04T14:34:19;5.47;;;2.05;;
65033;SDS011;51601;51.356;12.458;2022-07-04T14:38:35;7.60;;;2.85;;
65033;SDS011;51601;51.356;12.458;2022-07-04T14:42:49;5.22;;;1.92;;
65033;SDS011;51601;51.356;12.458;2022-07-04T14:47:03;4.70;;;1.70;;
65033;SDS011;51601;51.356;12.458;2022-07-04T14:51:23;7.22;;;2.10;;
65033;SDS011;51601;51.356;12.458;2022-07-04T14:55:39;7.53;;;1.60;;
65033;SDS011;51601;51.356;12.458;2022-07-04T14:59:52;4.13;;;1.70;;
65033;SDS011;51601;51.356;12.458;2022-07-04T15:04:06;5.70;;;1.63;;
65033;SDS011;51601;51.356;12.458;2022-07-04T15:08:20;3.97;;;1.50;;
65033;SDS011;51601;51.356;12.458;2022-07-04T15:12:35;5.37;;;1.70;;
65033;SDS011;51601;51.356;12.458;2022-07-04T15:16:51;5.35;;;1.60;;
65033;SDS011;51601;51.356;12.458;2022-07-04T15:21:05;7.07;;;1.90;;
65033;SDS011;51601;51.356;12.458;2022-07-04T15:25:36;8.95;;;2.88;;
65033;SDS011;51601;51.356;12.458;2022-07-04T15:29:52;4.17;;;1.40;;
65033;SDS011;51601;51.356;12.458;2022-07-04T15:34:06;5.63;;;1.60;;
65033;SDS011;51601;51.356;12.458;2022-07-04T15:38:20;4.75;;;1.50;;
65033;SDS011;51601;51.356;12.458;2022-07-04T15:42:34;4.37;;;1.47;;
65033;SDS011;51601;51.356;12.458;2022-07-04T15:46:49;4.00;;;1.38;;
65033;SDS011;51601;51.356;12.458;2022-07-04T15:51:22;5.00;;;1.30;;
65033;SDS011;51601;51.356;12.458;2022-07-04T15:55:56;4.17;;;1.33;;
65033;SDS011;51601;51.356;12.458;2022-07-04T16:00:11;3.13;;;1.27;;
65033;SDS011;51601;51.356;12.458;2022-07-04T16:04:27;4.65;;;1.30;;
65033;SDS011;51601;51.356;12.458;2022-07-04T16:08:41;5.53;;;1.50;;
65033;SDS011;51601;51.356;12.458;2022-07-04T16:12:55;4.13;;;1.30;;
65033;SDS011;51601;51.356;12.458;2022-07-04T16:17:10;5.68;;;1.70;;
65033;SDS011;51601;51.356;12.458;2022-07-04T16:21:25;6.88;;;1.42;;
65033;SDS011;51601;51.356;12.458;2022-07-04T16:25:42;3.80;;;1.50;;
65033;SDS011;51601;51.356;12.458;2022-07-04T16:29:57;4.00;;;1.35;;
65033;SDS011;51601;51.356;12.458;2022-07-04T16:34:14;4.45;;;1.30;;
65033;SDS011;51601;51.356;12.458;2022-07-04T16:38:29;4.40;;;1.53;;
65033;SDS011;51601;51.356;12.458;2022-07-04T16:42:43;4.03;;;1.48;;
65033;SDS011;51601;51.356;12.458;2022-07-04T16:46:57;5.60;;;1.70;;
65033;SDS011;51601;51.356;12.458;2022-07-04T16:51:13;5.65;;;1.75;;
65033;SDS011;51601;51.356;12.458;2022-07-04T16:55:28;4.53;;;1.80;;
65033;SDS011;51601;51.356;12.458;2022-07-04T16:59:42;5.13;;;1.90;;
65033;SDS011;51601;51.356;12.458;2022-07-04T17:03:56;6.63;;;1.70;;
65033;SDS011;51601;51.356;12.458;2022-07-04T17:08:10;5.10;;;2.00;;
65033;SDS011;51601;51.356;12.458;2022-07-04T17:12:25;4.93;;;1.67;;
65033;SDS011;51601;51.356;12.458;2022-07-04T17:16:41;6.50;;;1.98;;
65033;SDS011;51601;51.356;12.458;2022-07-04T17:20:55;6.10;;;1.87;;
65033;SDS011;51601;51.356;12.458;2022-07-04T17:25:10;6.07;;;1.80;;
65033;SDS011;51601;51.356;12.458;2022-07-04T17:29:27;5.82;;;1.83;;
65033;SDS011;51601;51.356;12.458;2022-07-04T17:33:44;5.93;;;1.80;;
65033;SDS011;51601;51.356;12.458;2022-07-04T17:37:58;4.87;;;1.70;;
65033;SDS011;51601;51.356;12.458;2022-07-04T17:42:13;6.03;;;1.92;;
65033;SDS011;51601;51.356;12.458;2022-07-04T17:46:28;4.55;;;1.80;;
65033;SDS011;51601;51.356;12.458;2022-07-04T17:50:45;4.50;;;1.93;;
65033;SDS011;51601;51.356;12.458;2022-07-04T17:55:02;4.68;;;1.75;;
65033;SDS011;51601;51.356;12.458;2022-07-04T17:59:23;5.50;;;2.10;;
65033;SDS011;51601;51.356;12.458;2022-07-04T18:03:39;5.27;;;1.90;;
65033;SDS011;51601;51.356;12.458;2022-07-04T18:07:53;7.40;;;1.90;;
65033;SDS011;51601;51.356;12.458;2022-07-04T18:12:07;6.07;;;1.88;;
65033;SDS011;51601;51.356;12.458;2022-07-04T18:16:21;4.05;;;1.65;;
65033;SDS011;51601;51.356;12.458;2022-07-04T18:20:37;5.90;;;1.70;;
65033;SDS011;51601;51.356;12.458;2022-07-04T18:24:51;5.40;;;1.90;;
65033;SDS011;51601;51.356;12.458;2022-07-04T18:29:04;4.47;;;1.70;;
65033;SDS011;51601;51.356;12.458;2022-07-04T18:33:19;5.07;;;1.70;;
65033;SDS011;51601;51.356;12.458;2022-07-04T18:37:34;7.80;;;1.73;;
65033;SDS011;51601;51.356;12.458;2022-07-04T18:41:48;7.32;;;1.70;;
65033;SDS011;51601;51.356;12.458;2022-07-04T18:46:19;5.60;;;1.77;;
65033;SDS011;51601;51.356;12.458;2022-07-04T18:50:33;6.05;;;1.95;;
65033;SDS011;51601;51.356;12.458;2022-07-04T18:54:49;5.57;;;2.00;;
65033;SDS011;51601;51.356;12.458;2022-07-04T18:59:03;8.13;;;2.05;;
65033;SDS011;51601;51.356;12.458;2022-07-04T19:03:17;4.00;;;1.57;;
65033;SDS011;51601;51.356;12.458;2022-07-04T19:07:31;6.30;;;2.05;;
65033;SDS011;51601;51.356;12.458;2022-07-04T19:11:46;6.53;;;1.70;;
65033;SDS011;51601;51.356;12.458;2022-07-04T19:16:00;5.17;;;1.83;;
65033;SDS011;51601;51.356;12.458;2022-07-04T19:20:15;4.55;;;1.52;;
65033;SDS011;51601;51.356;12.458;2022-07-04T19:24:29;4.35;;;1.70;;
65033;SDS011;51601;51.356;12.458;2022-07-04T19:28:45;4.43;;;1.50;;
65033;SDS011;51601;51.356;12.458;2022-07-04T19:32:59;4.50;;;1.67;;
65033;SDS011;51601;51.356;12.458;2022-07-04T19:37:13;3.70;;;1.50;;
65033;SDS011;51601;51.356;12.458;2022-07-04T19:41:27;5.72;;;1.58;;
65033;SDS011;51601;51.356;12.458;2022-07-04T19:45:43;5.70;;;1.57;;
65033;SDS011;51601;51.356;12.458;2022-07-04T19:49:57;6.38;;;1.60;;
65033;SDS011;51601;51.356;12.458;2022-07-04T19:54:12;5.05;;;1.80;;
65033;SDS011;51601;51.356;12.458;2022-07-04T19:58:31;4.47;;;1.77;;
65033;SDS011;51601;51.356;12.458;2022-07-04T20:02:47;5.70;;;1.90;;
65033;SDS011;51601;51.356;12.458;2022-07-04T20:07:02;6.07;;;1.50;;
65033;SDS011;51601;51.356;12.458;2022-07-04T20:11:22;4.63;;;1.80;;
65033;SDS011;51601;51.356;12.458;2022-07-04T20:15:37;5.10;;;1.83;;
65033;SDS011;51601;51.356;12.458;2022-07-04T20:19:53;5.80;;;1.70;;
65033;SDS011;51601;51.356;12.458;2022-07-04T20:24:08;3.60;;;1.50;;
65033;SDS011;51601;51.356;12.458;2022-07-04T20:28:22;5.03;;;1.70;;
65033;SDS011;51601;51.356;12.458;2022-07-04T20:32:37;5.18;;;1.60;;
65033;SDS011;51601;51.356;12.458;2022-07-04T20:36:52;4.75;;;1.38;;
65033;SDS011;51601;51.356;12.458;2022-07-04T20:41:06;5.07;;;1.70;;
65033;SDS011;51601;51.356;12.458;2022-07-04T20:45:21;6.05;;;1.52;;
65033;SDS011;51601;51.356;12.458;2022-07-04T20:49:35;5.80;;;1.80;;
65033;SDS011;51601;51.356;12.458;2022-07-04T20:53:50;4.47;;;1.70;;
65033;SDS011;51601;51.356;12.458;2022-07-04T20:58:04;6.43;;;2.03;;
65033;SDS011;51601;51.356;12.458;2022-07-04T21:02:18;5.75;;;1.77;;
65033;SDS011;51601;51.356;12.458;2022-07-04T21:06:33;5.32;;;1.65;;
65033;SDS011;51601;51.356;12.458;2022-07-04T21:10:49;5.60;;;1.80;;
65033;SDS011;51601;51.356;12.458;2022-07-04T21:15:03;3.83;;;1.60;;
65033;SDS011;51601;51.356;12.458;2022-07-04T21:19:28;4.18;;;1.63;;
65033;SDS011;51601;51.356;12.458;2022-07-04T21:23:43;5.07;;;2.17;;
65033;SDS011;51601;51.356;12.458;2022-07-04T21:28:01;6.63;;;2.80;;
65033;SDS011;51601;51.356;12.458;2022-07-04T21:32:15;4.88;;;2.00;;
65033;SDS011;51601;51.356;12.458;2022-07-04T21:36:30;6.40;;;2.10;;
65033;SDS011;51601;51.356;12.458;2022-07-04T21:40:44;4.75;;;1.70;;
65033;SDS011;51601;51.356;12.458;2022-07-04T21:45:00;6.43;;;1.83;;
65033;SDS011;51601;51.356;12.458;2022-07-04T21:49:13;5.15;;;1.98;;
65033;SDS011;51601;51.356;12.458;2022-07-04T21:53:27;3.87;;;1.63;;
65033;SDS011;51601;51.356;12.458;2022-07-04T21:57:42;5.35;;;1.90;;
65033;SDS011;51601;51.356;12.458;2022-07-04T22:01:57;6.05;;;1.70;;
65033;SDS011;51601;51.356;12.458;2022-07-04T22:06:11;3.70;;;1.70;;
65033;SDS011;51601;51.356;12.458;2022-07-04T22:10:24;6.95;;;2.20;;
65033;SDS011;51601;51.356;12.458;2022-07-04T22:14:38;4.90;;;1.80;;
65033;SDS011;51601;51.356;12.458;2022-07-04T22:18:54;5.03;;;1.90;;
65033;SDS011;51601;51.356;12.458;2022-07-04T22:23:08;5.80;;;2.03;;
65033;SDS011;51601;51.356;12.458;2022-07-04T22:27:22;4.15;;;1.60;;
65033;SDS011;51601;51.356;12.458;2022-07-04T22:31:36;7.03;;;2.28;;
65033;SDS011;51601;51.356;12.458;2022-07-04T22:35:51;3.70;;;1.50;;
65033;SDS011;51601;51.356;12.458;2022-07-04T22:40:05;4.68;;;1.70;;
65033;SDS011;51601;51.356;12.458;2022-07-04T22:44:20;5.57;;;1.70;;
65033;SDS011;51601;51.356;12.458;2022-07-04T22:48:34;5.47;;;1.60;;
65033;SDS011;51601;51.356;12.458;2022-07-04T22:52:49;5.72;;;1.80;;
65033;SDS011;51601;51.356;12.458;2022-07-04T22:57:03;5.13;;;2.20;;
65033;SDS011;51601;51.356;12.458;2022-07-04T23:01:17;5.73;;;2.10;;
65033;SDS011;51601;51.356;12.458;2022-07-04T23:05:31;5.25;;;1.80;;
65033;SDS011;51601;51.356;12.458;2022-07-04T23:09:46;4.20;;;1.65;;
65033;SDS011;51601;51.356;12.458;2022-07-04T23:14:01;5.07;;;1.80;;
65033;SDS011;51601;51.356;12.458;2022-07-04T23:18:15;4.87;;;1.90;;
65033;SDS011;51601;51.356;12.458;2022-07-04T23:22:28;4.88;;;1.95;;
65033;SDS011;51601;51.356;12.458;2022-07-04T23:26:46;6.53;;;1.98;;
65033;SDS011;51601;51.356;12.458;2022-07-04T23:31:00;5.47;;;2.10;;
65033;SDS011;51601;51.356;12.458;2022-07-04T23:35:14;4.93;;;2.00;;
65033;SDS011;51601;51.356;12.458;2022-07-04T23:39:28;5.65;;;1.95;;
65033;SDS011;51601;51.356;12.458;2022-07-04T23:43:44;5.80;;;2.20;;
65033;SDS011;51601;51.356;12.458;2022-07-04T23:47:58;4.65;;;1.90;;
65033;SDS011;51601;51.356;12.458;2022-07-04T23:52:12;5.30;;;2.20;;
65033;SDS011;51601;51.356;12.458;2022-07-04T23:56:27;4.45;;;1.80;;
